createdAt,value
2017-11-23T00:01:38.905Z,97.20
2017-11-23T00:04:07.386Z,97.36
2017-11-23T00:06:35.713Z,96.79
2017-11-23T00:09:04.071Z,96.57
2017-11-23T00:11:31.648Z,96.49
2017-11-23T00:13:59.958Z,96.77
2017-11-23T00:16:28.309Z,96.64
2017-11-23T00:18:56.685Z,96.86
2017-11-23T00:21:24.250Z,97.29
2017-11-23T00:23:52.682Z,97.31
2017-11-23T00:26:21.039Z,97.44
2017-11-23T00:28:49.393Z,97.43
2017-11-23T00:31:16.963Z,97.43
2017-11-23T00:33:44.533Z,97.63
2017-11-23T00:36:12.109Z,97.57
2017-11-23T00:38:40.569Z,97.41
2017-11-23T00:41:08.165Z,97.42
2017-11-23T00:43:36.776Z,97.31
2017-11-23T00:46:05.158Z,97.54
2017-11-23T00:48:33.513Z,97.63
2017-11-23T00:51:01.082Z,97.70
2017-11-23T00:53:29.541Z,98.52
2017-11-23T00:55:57.102Z,97.82
2017-11-23T00:58:24.670Z,97.77
2017-11-23T01:00:52.241Z,97.91
2017-11-23T01:03:19.799Z,98.27
2017-11-23T01:05:47.365Z,97.84
2017-11-23T01:08:14.930Z,98.56
2017-11-23T01:10:42.495Z,97.90
2017-11-23T01:13:10.061Z,99.48
2017-11-23T01:15:43.065Z,98.16
2017-11-23T01:18:10.978Z,97.58
2017-11-23T01:20:38.549Z,97.53
2017-11-23T01:23:06.155Z,97.27
2017-11-23T01:25:34.493Z,97.21
2017-11-23T01:28:02.055Z,97.07
2017-11-23T01:30:29.613Z,97.31
2017-11-23T01:32:58.068Z,97.23
2017-11-23T01:35:25.642Z,97.19
2017-11-23T01:37:54.120Z,97.22
2017-11-23T01:40:22.618Z,97.39
2017-11-23T01:42:50.187Z,97.62
2017-11-23T01:45:18.667Z,97.09
2017-11-23T01:47:47.030Z,97.35
2017-11-23T01:50:14.593Z,97.51
2017-11-23T01:52:42.159Z,98.56
2017-11-23T01:55:10.726Z,97.58
2017-11-23T01:57:39.098Z,97.24
2017-11-23T02:00:06.774Z,97.23
2017-11-23T02:02:35.157Z,96.96
2017-11-23T02:05:02.758Z,97.36
2017-11-23T02:07:30.315Z,97.50
2017-11-23T02:09:58.657Z,97.09
2017-11-23T02:12:26.221Z,97.21
2017-11-23T02:14:54.788Z,97.91
2017-11-23T02:17:23.159Z,97.81
2017-11-23T02:19:51.586Z,97.50
2017-11-23T02:22:19.183Z,97.49
2017-11-23T02:24:47.545Z,97.42
2017-11-23T02:27:16.074Z,97.52
2017-11-23T02:29:44.420Z,97.23
2017-11-23T02:32:12.763Z,97.27
2017-11-23T02:34:41.111Z,97.11
2017-11-23T02:37:08.682Z,97.12
2017-11-23T02:39:36.962Z,97.77
2017-11-23T02:42:04.556Z,98.30
2017-11-23T02:44:32.125Z,98.18
2017-11-23T02:46:59.686Z,98.29
2017-11-23T02:49:27.247Z,97.89
2017-11-23T02:51:54.849Z,97.99
2017-11-23T02:54:23.345Z,97.95
2017-11-23T02:56:51.686Z,98.39
2017-11-23T02:59:20.046Z,98.33
2017-11-23T03:01:47.609Z,98.66
2017-11-23T03:04:16.083Z,97.80
2017-11-23T03:06:43.647Z,97.64
2017-11-23T03:09:11.207Z,97.75
2017-11-23T03:11:39.569Z,98.41
2017-11-23T03:14:07.129Z,98.05
2017-11-23T03:16:34.692Z,98.07
2017-11-23T03:19:03.236Z,97.45
2017-11-23T03:21:30.829Z,97.52
2017-11-23T03:23:58.425Z,96.80
2017-11-23T03:26:25.977Z,97.47
2017-11-23T03:28:54.478Z,96.89
2017-11-23T03:31:22.035Z,96.35
2017-11-23T03:33:50.428Z,96.48
2017-11-23T03:36:17.985Z,96.25
2017-11-23T03:38:45.545Z,96.13
2017-11-23T03:41:13.133Z,95.44
2017-11-23T03:43:40.686Z,94.64
2017-11-23T03:46:08.280Z,94.42
2017-11-23T03:48:36.758Z,94.32
2017-11-23T03:51:04.355Z,94.63
2017-11-23T03:53:31.949Z,94.62
2017-11-23T03:55:59.500Z,94.43
2017-11-23T03:58:28.023Z,94.43
2017-11-23T04:00:56.390Z,94.59
2017-11-23T04:03:23.945Z,94.66
2017-11-23T04:05:51.504Z,94.72
2017-11-23T04:08:19.065Z,95.08
2017-11-23T04:10:46.627Z,94.32
2017-11-23T04:13:14.190Z,93.88
2017-11-23T04:15:41.752Z,94.25
2017-11-23T04:18:09.310Z,94.21
2017-11-23T04:20:36.872Z,93.82
2017-11-23T04:23:04.470Z,93.82
2017-11-23T04:25:32.029Z,93.66
2017-11-23T04:27:59.590Z,93.33
2017-11-23T04:30:27.151Z,93.48
2017-11-23T04:32:54.711Z,94.32
2017-11-23T04:35:22.278Z,94.13
2017-11-23T04:37:49.832Z,93.41
2017-11-23T04:40:17.433Z,93.06
2017-11-23T04:42:45.933Z,93.05
2017-11-23T04:45:13.490Z,92.54
2017-11-23T04:47:41.045Z,92.76
2017-11-23T04:50:09.510Z,92.68
2017-11-23T04:52:37.845Z,93.12
2017-11-23T04:55:06.161Z,93.12
2017-11-23T04:57:34.666Z,92.90
2017-11-23T05:00:02.925Z,92.88
2017-11-23T05:02:31.353Z,92.93
2017-11-23T05:04:58.978Z,93.02
2017-11-23T05:07:26.600Z,93.34
2017-11-23T05:09:54.154Z,93.38
2017-11-23T05:12:21.707Z,94.79
2017-11-23T05:14:50.153Z,94.48
2017-11-23T05:17:17.710Z,94.72
2017-11-23T05:19:46.156Z,94.60
2017-11-23T05:22:13.721Z,94.66
2017-11-23T05:24:41.281Z,94.93
2017-11-23T05:27:08.864Z,94.03
2017-11-23T05:29:37.210Z,94.41
2017-11-23T05:32:04.769Z,94.07
2017-11-23T05:34:33.241Z,94.25
2017-11-23T05:37:00.814Z,94.19
2017-11-23T05:39:29.182Z,94.32
2017-11-23T05:41:57.668Z,93.29
2017-11-23T05:44:26.010Z,93.72
2017-11-23T05:46:54.340Z,94.08
2017-11-23T05:49:21.892Z,94.04
2017-11-23T05:51:49.452Z,93.67
2017-11-23T05:54:17.008Z,93.73
2017-11-23T05:56:44.610Z,93.51
2017-11-23T05:59:12.168Z,93.50
2017-11-23T06:01:39.717Z,93.34
2017-11-23T06:04:07.268Z,93.29
2017-11-23T06:06:34.816Z,93.27
2017-11-23T06:09:02.369Z,93.04
2017-11-23T06:11:29.921Z,93.69
2017-11-23T06:13:58.390Z,93.62
2017-11-23T06:16:25.941Z,93.43
2017-11-23T06:18:53.496Z,93.39
2017-11-23T06:21:21.064Z,93.69
2017-11-23T06:23:48.619Z,93.98
2017-11-23T06:26:16.174Z,93.75
2017-11-23T06:28:43.731Z,94.55
2017-11-23T06:31:11.282Z,94.55
2017-11-23T06:33:38.846Z,94.20
2017-11-23T06:36:06.410Z,94.19
2017-11-23T06:38:34.030Z,93.93
2017-11-23T06:41:01.590Z,93.63
2017-11-23T06:43:29.153Z,92.88
2017-11-23T06:45:56.710Z,92.61
2017-11-23T06:48:24.274Z,93.29
2017-11-23T06:50:51.830Z,92.78
2017-11-23T06:53:20.495Z,92.56
2017-11-23T06:55:48.060Z,92.59
2017-11-23T06:58:15.619Z,92.61
2017-11-23T07:00:43.181Z,92.60
2017-11-23T07:03:10.738Z,92.45
2017-11-23T07:05:38.294Z,92.38
2017-11-23T07:08:05.845Z,92.16
2017-11-23T07:10:33.398Z,91.22
2017-11-23T07:13:00.962Z,90.53
2017-11-23T07:15:28.518Z,90.54
2017-11-23T07:18:00.923Z,90.51
2017-11-23T07:20:29.433Z,90.45
2017-11-23T07:22:57.074Z,90.17
2017-11-23T07:25:24.639Z,89.81
2017-11-23T07:27:52.205Z,90.28
2017-11-23T07:30:19.757Z,89.28
2017-11-23T07:32:47.422Z,88.73
2017-11-23T07:35:14.983Z,88.45
2017-11-23T07:37:42.538Z,88.39
2017-11-23T07:40:10.096Z,89.06
2017-11-23T07:42:37.657Z,88.38
2017-11-23T07:45:05.216Z,87.28
2017-11-23T07:47:32.780Z,87.98
2017-11-23T07:50:00.346Z,86.99
2017-11-23T07:52:27.905Z,86.21
2017-11-23T07:54:55.474Z,85.89
2017-11-23T07:57:23.034Z,85.16
2017-11-23T07:59:50.597Z,85.55
2017-11-23T08:02:18.158Z,86.27
2017-11-23T08:04:45.714Z,84.39
2017-11-23T08:07:13.273Z,85.17
2017-11-23T08:09:40.826Z,84.50
2017-11-23T08:12:08.389Z,84.55
2017-11-23T08:14:35.956Z,84.09
2017-11-23T08:17:03.538Z,82.69
2017-11-23T08:19:31.085Z,83.79
2017-11-23T08:21:58.641Z,83.21
2017-11-23T08:24:26.206Z,81.92
2017-11-23T08:26:53.761Z,81.62
2017-11-23T08:29:21.315Z,81.47
2017-11-23T08:31:48.871Z,81.03
2017-11-23T08:34:16.442Z,80.72
2017-11-23T08:36:44.001Z,80.04
2017-11-23T08:39:11.554Z,79.54
2017-11-23T08:41:39.154Z,80.42
2017-11-23T08:44:07.681Z,80.69
2017-11-23T08:46:35.242Z,80.75
2017-11-23T08:49:02.802Z,79.33
2017-11-23T08:51:30.405Z,79.20
2017-11-23T08:53:57.966Z,79.65
2017-11-23T08:56:25.514Z,78.89
2017-11-23T08:58:53.882Z,78.75
2017-11-23T09:01:21.470Z,79.04
2017-11-23T09:03:49.073Z,78.83
2017-11-23T09:06:16.675Z,78.59
2017-11-23T09:08:44.231Z,78.35
2017-11-23T09:11:11.789Z,78.20
2017-11-23T09:13:39.349Z,78.58
2017-11-23T09:16:06.943Z,78.25
2017-11-23T09:18:34.502Z,78.61
2017-11-23T09:21:02.065Z,78.05
2017-11-23T09:23:30.414Z,78.57
2017-11-23T09:25:58.875Z,77.53
2017-11-23T09:28:26.443Z,77.28
2017-11-23T09:30:54.004Z,77.64
2017-11-23T09:33:21.570Z,77.44
2017-11-23T09:35:49.133Z,76.41
2017-11-23T09:38:17.462Z,77.80
2017-11-23T09:40:46.065Z,75.81
2017-11-23T09:43:13.626Z,76.03
2017-11-23T09:45:41.183Z,75.49
2017-11-23T09:48:08.738Z,74.99
2017-11-23T09:50:36.289Z,75.90
2017-11-23T09:53:03.851Z,75.44
2017-11-23T09:55:31.451Z,75.45
2017-11-23T09:57:59.012Z,75.77
2017-11-23T10:00:26.578Z,75.63
2017-11-23T10:02:54.137Z,75.97
2017-11-23T10:05:21.738Z,75.44
2017-11-23T10:07:49.298Z,75.22
2017-11-23T10:10:16.861Z,74.25
2017-11-23T10:12:44.418Z,74.40
2017-11-23T10:15:12.007Z,75.20
2017-11-23T10:17:39.566Z,75.86
2017-11-23T10:20:07.126Z,75.39
2017-11-23T10:22:34.685Z,77.31
2017-11-23T10:25:03.039Z,77.27
2017-11-23T10:27:30.633Z,76.48
2017-11-23T10:29:58.193Z,75.15
2017-11-23T10:32:25.765Z,77.88
2017-11-23T10:34:53.315Z,76.65
2017-11-23T10:37:26.394Z,77.83
2017-11-23T10:39:54.849Z,77.09
2017-11-23T10:42:22.442Z,76.79
2017-11-23T10:44:49.999Z,77.15
2017-11-23T10:47:17.608Z,78.24
2017-11-23T10:49:45.850Z,76.32
2017-11-23T10:52:13.413Z,75.69
2017-11-23T10:54:40.973Z,76.71
2017-11-23T10:57:08.532Z,76.07
2017-11-23T10:59:36.093Z,77.83
2017-11-23T11:02:03.657Z,75.54
2017-11-23T11:04:31.259Z,75.21
2017-11-23T11:06:58.822Z,74.87
2017-11-23T11:09:26.386Z,75.57
2017-11-23T11:11:53.990Z,74.54
2017-11-23T11:14:21.565Z,72.99
2017-11-23T11:16:49.163Z,73.26
2017-11-23T11:19:16.721Z,72.31
2017-11-23T11:21:44.280Z,70.64
2017-11-23T11:24:11.841Z,70.67
2017-11-23T11:26:39.438Z,71.60
2017-11-23T11:29:07.006Z,71.07
2017-11-23T11:31:34.572Z,71.37
2017-11-23T11:34:02.136Z,71.04
2017-11-23T11:36:29.698Z,70.40
2017-11-23T11:38:57.267Z,70.44
2017-11-23T11:41:24.830Z,67.69
2017-11-23T11:43:52.393Z,68.48
2017-11-23T11:46:19.990Z,68.92
2017-11-23T11:48:47.554Z,68.62
2017-11-23T11:51:15.110Z,67.72
2017-11-23T11:53:42.678Z,69.10
2017-11-23T11:56:10.932Z,68.93
2017-11-23T11:58:38.498Z,69.10
2017-11-23T12:01:06.070Z,69.24
2017-11-23T12:03:33.632Z,68.39
2017-11-23T12:06:01.199Z,69.50
2017-11-23T12:25:58.030Z,68.78
2017-11-23T12:28:37.286Z,67.23
2017-11-23T12:31:04.844Z,67.81
2017-11-23T12:33:32.405Z,68.32
2017-11-23T12:35:59.962Z,68.38
2017-11-23T12:38:27.527Z,68.72
2017-11-23T12:40:55.104Z,68.07
2017-11-23T12:43:22.673Z,68.79
2017-11-23T12:45:50.230Z,68.75
2017-11-23T12:48:17.794Z,67.68
2017-11-23T12:50:45.354Z,67.84
2017-11-23T12:53:12.918Z,66.57
2017-11-23T12:55:40.478Z,66.91
2017-11-23T12:58:08.042Z,68.73
2017-11-23T13:00:35.602Z,68.75
2017-11-23T13:03:03.982Z,70.42
2017-11-23T13:05:31.548Z,68.60
2017-11-23T13:08:00.007Z,70.34
2017-11-23T13:10:27.609Z,69.59
2017-11-23T13:12:55.174Z,68.62
2017-11-23T13:15:22.746Z,69.62
2017-11-23T13:17:50.311Z,68.93
2017-11-23T13:20:18.806Z,68.81
2017-11-23T13:22:46.365Z,70.44
2017-11-23T13:25:13.934Z,71.34
2017-11-23T13:27:41.508Z,70.54
2017-11-23T13:30:09.847Z,70.07
2017-11-23T13:32:37.425Z,70.83
2017-11-23T13:35:04.994Z,71.37
2017-11-23T13:37:33.396Z,70.19
2017-11-23T13:40:00.993Z,71.85
2017-11-23T13:42:28.610Z,70.31
2017-11-23T13:44:56.986Z,70.84
2017-11-23T13:47:24.558Z,70.18
2017-11-23T13:49:52.130Z,71.58
2017-11-23T13:52:19.694Z,70.93
2017-11-23T13:54:48.072Z,71.80
2017-11-23T13:57:16.414Z,72.88
2017-11-23T14:02:18.548Z,71.76
2017-11-23T14:04:46.895Z,71.72
2017-11-23T14:07:15.238Z,71.48
2017-11-23T14:09:43.244Z,71.71
2017-11-23T14:12:10.814Z,72.20
2017-11-23T14:14:38.372Z,71.91
2017-11-23T14:17:06.825Z,71.24
2017-11-23T14:19:34.391Z,72.25
2017-11-23T14:22:02.644Z,71.16
2017-11-23T14:24:30.246Z,70.62
2017-11-23T14:26:58.727Z,69.53
2017-11-23T14:29:26.293Z,68.48
2017-11-23T14:31:53.902Z,69.38
2017-11-23T14:34:21.467Z,69.76
2017-11-23T14:36:49.038Z,70.48
2017-11-23T14:39:16.598Z,68.92
2017-11-23T14:41:44.155Z,68.66
2017-11-23T14:44:11.752Z,68.90
2017-11-23T14:46:39.314Z,66.94
2017-11-23T14:49:06.889Z,67.36
2017-11-23T14:51:35.156Z,67.75
2017-11-23T14:54:02.711Z,68.46
2017-11-23T14:56:31.195Z,68.90
2017-11-23T14:58:58.793Z,69.44
2017-11-23T15:01:27.194Z,70.80
2017-11-23T15:03:54.764Z,69.70
2017-11-23T15:06:23.150Z,71.19
2017-11-23T15:08:51.505Z,70.32
2017-11-23T15:11:19.842Z,70.50
2017-11-23T15:13:48.213Z,71.56
2017-11-23T15:16:16.578Z,71.54
2017-11-23T15:18:44.920Z,72.77
2017-11-23T15:21:13.302Z,72.02
2017-11-23T15:23:41.683Z,71.45
2017-11-23T15:26:09.240Z,71.14
2017-11-23T15:28:36.810Z,71.43
2017-11-23T15:31:04.370Z,72.12
2017-11-23T15:33:32.846Z,72.41
2017-11-23T15:36:01.217Z,72.77
2017-11-23T15:38:29.701Z,72.13
2017-11-23T15:40:57.274Z,73.05
2017-11-23T15:43:24.842Z,73.29
2017-11-23T15:45:52.405Z,73.44
2017-11-23T15:48:19.966Z,73.46
2017-11-23T15:50:48.461Z,73.30
2017-11-23T15:53:16.822Z,72.74
2017-11-23T15:55:45.267Z,71.44
2017-11-23T15:58:12.822Z,73.03
2017-11-23T16:00:40.387Z,73.19
2017-11-23T16:03:07.956Z,72.78
2017-11-23T16:05:35.558Z,72.78
2017-11-23T16:08:04.043Z,74.33
2017-11-23T16:10:32.496Z,72.75
2017-11-23T16:13:00.066Z,73.55
2017-11-23T16:15:27.634Z,73.79
2017-11-23T16:17:55.986Z,73.98
2017-11-23T16:20:24.379Z,73.66
2017-11-23T16:22:52.723Z,74.24
2017-11-23T16:25:21.061Z,73.54
2017-11-23T16:27:48.627Z,72.80
2017-11-23T16:30:16.195Z,72.72
2017-11-23T16:32:43.753Z,72.72
2017-11-23T16:35:11.324Z,73.28
2017-11-23T16:37:51.626Z,71.71
2017-11-23T16:43:25.348Z,71.36
2017-11-23T16:46:08.399Z,70.64
2017-11-23T16:51:51.693Z,70.61
2017-11-23T16:54:25.338Z,72.61
2017-11-23T16:56:59.447Z,71.14
2017-11-23T16:59:32.701Z,71.69
2017-11-23T17:02:05.899Z,70.92
2017-11-23T17:07:38.138Z,72.45
2017-11-23T17:13:12.335Z,73.47
2017-11-23T17:15:42.416Z,73.65
2017-11-23T17:18:16.310Z,74.03
2017-11-23T17:20:44.690Z,74.23
2017-11-23T17:23:12.962Z,73.81
2017-11-23T17:25:41.337Z,74.07
2017-11-23T17:28:09.693Z,74.64
2017-11-23T17:30:37.250Z,74.39
2017-11-23T17:33:05.805Z,74.95
2017-11-23T17:35:33.365Z,74.70
2017-11-23T17:38:01.862Z,75.37
2017-11-23T17:40:29.457Z,75.36
2017-11-23T17:42:57.803Z,75.43
2017-11-23T17:45:25.379Z,75.10
2017-11-23T17:47:52.947Z,75.72
2017-11-23T17:50:20.515Z,76.02
2017-11-23T17:52:48.081Z,75.00
2017-11-23T17:55:15.691Z,75.19
2017-11-23T18:00:11.158Z,73.80
2017-11-23T18:02:38.745Z,74.30
2017-11-23T18:05:06.315Z,74.49
2017-11-23T18:07:33.896Z,73.80
2017-11-23T18:10:01.525Z,73.94
2017-11-23T18:12:29.093Z,74.10
2017-11-23T18:14:56.656Z,72.12
2017-11-23T18:17:24.223Z,72.97
2017-11-23T18:19:51.813Z,73.97
2017-11-23T18:22:19.386Z,73.05
2017-11-23T18:24:46.949Z,74.09
2017-11-23T18:27:14.513Z,73.73
2017-11-23T18:29:42.086Z,74.67
2017-11-23T18:32:09.648Z,74.76
2017-11-23T18:34:37.213Z,74.41
2017-11-23T18:37:04.779Z,75.38
2017-11-23T18:39:32.348Z,75.33
2017-11-23T18:41:59.927Z,76.26
2017-11-23T18:44:28.447Z,75.30
2017-11-23T18:46:58.125Z,74.84
2017-11-23T18:49:25.689Z,74.26
2017-11-23T18:51:53.260Z,74.21
2017-11-23T18:54:20.833Z,73.99
2017-11-23T18:56:48.414Z,74.01
2017-11-23T18:59:15.978Z,74.28
2017-11-23T19:01:43.542Z,73.86
2017-11-23T19:04:11.149Z,75.17
2017-11-23T19:06:38.714Z,74.07
2017-11-23T19:09:06.274Z,74.57
2017-11-23T19:11:33.842Z,75.08
2017-11-23T19:14:01.421Z,76.18
2017-11-23T19:16:28.981Z,76.08
2017-11-23T19:18:56.552Z,75.78
2017-11-23T19:21:24.116Z,76.27
2017-11-23T19:23:51.695Z,76.28
2017-11-23T19:26:19.266Z,76.95
2017-11-23T19:28:46.837Z,76.76
2017-11-23T19:31:14.406Z,77.64
2017-11-23T19:33:41.970Z,77.25
2017-11-23T19:36:09.542Z,77.39
2017-11-23T19:38:37.102Z,78.57
2017-11-23T19:41:04.680Z,77.53
2017-11-23T19:43:32.246Z,77.50
2017-11-23T19:45:59.812Z,78.39
2017-11-23T19:48:27.374Z,77.97
2017-11-23T19:50:54.937Z,77.70
2017-11-23T19:53:22.501Z,77.54
2017-11-23T19:55:50.062Z,77.54
2017-11-23T20:01:11.563Z,78.50
2017-11-23T20:03:39.950Z,76.39
2017-11-23T20:06:07.513Z,76.86
2017-11-23T20:08:35.079Z,76.73
2017-11-23T20:11:02.685Z,76.70
2017-11-23T20:13:30.260Z,76.42
2017-11-23T20:15:58.715Z,74.58
2017-11-23T20:18:27.167Z,74.48
2017-11-23T20:20:54.729Z,74.49
2017-11-23T20:23:22.290Z,73.47
2017-11-23T20:25:49.853Z,74.75
2017-11-23T20:28:17.426Z,74.01
2017-11-23T20:30:45.778Z,74.84
2017-11-23T20:33:13.399Z,73.74
2017-11-23T20:35:41.000Z,74.05
2017-11-23T20:38:09.471Z,74.56
2017-11-23T20:40:37.079Z,74.23
2017-11-23T20:43:04.645Z,73.46
2017-11-23T20:45:32.217Z,73.23
2017-11-23T20:47:59.785Z,73.41
2017-11-23T20:50:27.354Z,73.76
2017-11-23T20:52:54.919Z,73.11
2017-11-23T20:55:22.481Z,72.72
2017-11-23T20:57:50.043Z,73.84
2017-11-23T21:00:17.654Z,73.06
2017-11-23T21:02:45.346Z,73.96
2017-11-23T21:05:12.905Z,73.90
2017-11-23T21:07:40.482Z,74.72
2017-11-23T21:10:08.334Z,73.31
2017-11-23T21:12:36.234Z,72.73
2017-11-23T21:15:03.901Z,73.15
2017-11-23T21:17:33.177Z,74.26
2017-11-23T21:20:00.738Z,73.12
2017-11-23T21:22:28.298Z,73.04
2017-11-23T21:24:55.893Z,72.74
2017-11-23T21:27:23.455Z,73.16
2017-11-23T21:29:51.024Z,73.79
2017-11-23T21:32:18.581Z,73.40
2017-11-23T21:34:46.997Z,72.62
2017-11-23T21:37:14.562Z,71.44
2017-11-23T21:39:42.962Z,72.07
2017-11-23T21:42:11.301Z,71.17
2017-11-23T21:44:38.861Z,71.29
2017-11-23T21:47:06.468Z,71.14
2017-11-23T21:49:34.033Z,71.05
2017-11-23T21:52:01.589Z,70.37
2017-11-23T21:54:29.161Z,69.83
2017-11-23T21:56:56.729Z,71.46
2017-11-23T21:59:24.305Z,69.48
2017-11-23T22:01:51.866Z,69.65
2017-11-23T22:04:19.460Z,70.42
2017-11-23T22:06:47.039Z,70.62
2017-11-23T22:09:14.603Z,70.87
2017-11-23T22:11:42.166Z,70.80
2017-11-23T22:14:09.732Z,70.27
2017-11-23T22:16:37.299Z,70.98
2017-11-23T22:19:04.862Z,71.61
2017-11-23T22:21:33.209Z,70.92
2017-11-23T22:24:00.773Z,71.93
2017-11-23T22:26:28.338Z,71.95
2017-11-23T22:28:55.934Z,71.86
2017-11-23T22:31:24.330Z,71.04
2017-11-23T22:33:51.890Z,71.50
2017-11-23T22:36:20.141Z,70.54
2017-11-23T22:38:48.014Z,70.67
2017-11-23T22:41:15.570Z,70.42
2017-11-23T22:43:43.161Z,71.43
2017-11-23T22:46:10.726Z,70.44
2017-11-23T22:48:38.281Z,71.29
2017-11-23T22:51:05.835Z,70.43
2017-11-23T22:53:33.397Z,70.82
2017-11-23T22:56:01.753Z,70.25
2017-11-23T22:58:30.071Z,69.25
2017-11-23T23:00:58.396Z,69.10
2017-11-23T23:03:26.857Z,70.96
2017-11-23T23:05:54.413Z,72.01
2017-11-23T23:08:21.966Z,72.39
2017-11-23T23:10:49.540Z,70.99
2017-11-23T23:13:17.110Z,71.13
2017-11-23T23:15:44.675Z,70.71
2017-11-23T23:18:13.138Z,71.47
2017-11-23T23:20:40.706Z,71.61
2017-11-23T23:23:08.269Z,72.86
2017-11-23T23:25:35.837Z,71.84
2017-11-23T23:28:04.216Z,71.70
2017-11-23T23:30:31.774Z,72.17
2017-11-23T23:32:59.346Z,72.45
2017-11-23T23:35:26.955Z,72.11
2017-11-23T23:37:55.336Z,71.88
2017-11-23T23:40:22.929Z,72.44
2017-11-23T23:42:50.495Z,72.81
2017-11-23T23:45:18.960Z,72.76
2017-11-23T23:47:47.321Z,72.94
2017-11-23T23:50:15.780Z,72.37
2017-11-23T23:52:43.342Z,71.78
2017-11-23T23:55:11.797Z,71.29
2017-11-23T23:57:40.129Z,70.91
